createdAt,value
2023-04-29T00:01:22.536Z,100073.34
2023-04-29T00:03:49.968Z,100068.94
2023-04-29T00:06:17.507Z,100069.98
2023-04-29T00:08:44.562Z,100071.73
2023-04-29T00:11:11.698Z,100075.98
2023-04-29T00:13:41.780Z,100074.91
2023-04-29T00:16:09.850Z,100072.98
2023-04-29T00:18:37.338Z,100070.17
2023-04-29T00:21:05.731Z,100065.05
2023-04-29T00:23:33.555Z,100061.17
2023-04-29T00:26:00.406Z,100065.23
2023-04-29T00:28:27.552Z,100062.95
2023-04-29T00:30:55.377Z,100062.23
2023-04-29T00:33:22.470Z,100062.59
2023-04-29T00:35:49.537Z,100062.42
2023-04-29T00:38:16.776Z,100061.38
2023-04-29T00:40:43.907Z,100058.73
2023-04-29T00:43:10.645Z,100059.45
2023-04-29T00:45:37.519Z,100059.45
2023-04-29T00:48:04.558Z,100060.02
2023-04-29T00:50:31.814Z,100066.04
2023-04-29T00:52:59.676Z,100069.74
2023-04-29T00:55:26.735Z,100067.09
2023-04-29T00:57:53.894Z,100071.70
2023-04-29T01:00:20.928Z,100072.79
2023-04-29T01:02:48.930Z,100072.22
2023-04-29T01:05:15.858Z,100072.62
2023-04-29T01:08:13.163Z,100073.54
2023-04-29T01:10:55.011Z,100076.92
2023-04-29T01:13:49.511Z,100080.48
2023-04-29T01:16:23.941Z,100078.20
2023-04-29T01:18:55.369Z,100074.86
2023-04-29T01:21:27.740Z,100067.60
2023-04-29T01:23:57.734Z,100070.60
2023-04-29T01:26:27.265Z,100074.31
2023-04-29T01:29:39.075Z,100076.78
2023-04-29T01:32:11.237Z,100078.90
2023-04-29T01:34:47.274Z,100082.25
2023-04-29T01:37:19.159Z,100084.56
2023-04-29T01:40:09.058Z,100090.21
2023-04-29T01:42:45.683Z,100097.63
2023-04-29T01:45:16.820Z,100100.98
2023-04-29T01:47:44.853Z,100105.91
2023-04-29T01:50:11.927Z,100105.57
2023-04-29T01:52:39.456Z,100103.09
2023-04-29T01:55:07.212Z,100105.39
2023-04-29T01:57:41.809Z,100104.14
2023-04-29T02:00:18.024Z,100102.21
2023-04-29T02:02:48.679Z,100105.56
2023-04-29T02:05:33.701Z,100112.79
2023-04-29T02:08:01.276Z,100115.26
2023-04-29T02:10:28.827Z,100115.25
2023-04-29T02:13:04.368Z,100117.52
2023-04-29T02:15:32.960Z,100115.42
2023-04-29T02:18:00.281Z,100117.52
2023-04-29T02:20:27.375Z,100118.24
2023-04-29T02:22:54.116Z,100116.13
2023-04-29T02:25:20.896Z,100116.66
2023-04-29T02:27:47.620Z,100115.61
2023-04-29T02:30:14.387Z,100118.41
2023-04-29T02:32:41.322Z,100115.95
2023-04-29T02:35:09.046Z,100119.65
2023-04-29T02:37:35.949Z,100123.35
2023-04-29T02:40:03.454Z,100121.05
2023-04-29T02:42:31.113Z,100123.52
2023-04-29T02:44:57.861Z,100127.56
2023-04-29T02:47:24.703Z,100127.04
2023-04-29T02:49:51.993Z,100132.31
2023-04-29T02:52:19.091Z,100139.38
2023-04-29T02:54:46.295Z,100143.09
2023-04-29T02:57:13.408Z,100142.75
2023-04-29T02:59:40.270Z,100142.76
2023-04-29T03:02:07.053Z,100143.28
2023-04-29T03:04:33.975Z,100145.23
2023-04-29T03:07:00.795Z,100147.67
2023-04-29T03:09:28.245Z,100152.17
2023-04-29T03:11:55.969Z,100153.27
2023-04-29T03:14:22.862Z,100152.26
2023-04-29T03:16:50.139Z,100155.46
2023-04-29T03:19:17.774Z,100160.81
2023-04-29T03:21:44.772Z,100159.66
2023-04-29T03:24:11.427Z,100155.52
2023-04-29T03:26:38.359Z,100155.84
2023-04-29T03:29:05.780Z,100164.11
2023-04-29T03:31:33.758Z,100159.42
2023-04-29T03:34:00.460Z,100160.88
2023-04-29T03:36:27.460Z,100162.96
2023-04-29T03:39:02.891Z,100162.51
2023-04-29T03:41:30.523Z,100159.77
2023-04-29T03:44:00.832Z,100161.00
2023-04-29T03:46:29.214Z,100162.93
2023-04-29T03:48:57.203Z,100163.35
2023-04-29T03:51:24.867Z,100162.32
2023-04-29T03:53:55.929Z,100162.02
2023-04-29T03:56:25.001Z,100161.30
2023-04-29T03:58:52.575Z,100162.92
2023-04-29T04:01:20.473Z,100163.99
2023-04-29T04:03:47.461Z,100158.80
2023-04-29T04:06:15.037Z,100158.23
2023-04-29T04:08:42.290Z,100159.02
2023-04-29T04:11:14.475Z,100161.15
2023-04-29T04:13:55.770Z,100158.35
2023-04-29T04:16:23.608Z,100160.09
2023-04-29T04:18:51.902Z,100163.60
2023-04-29T04:21:18.817Z,100166.27
2023-04-29T04:23:50.902Z,100165.21
2023-04-29T04:26:21.239Z,100157.31
2023-04-29T04:29:02.146Z,100154.69
2023-04-29T04:31:47.862Z,100157.95
2023-04-29T04:34:15.563Z,100156.96
2023-04-29T04:36:43.119Z,100150.49
2023-04-29T04:39:09.964Z,100147.52
2023-04-29T04:41:36.818Z,100152.27
2023-04-29T04:44:04.379Z,100151.65
2023-04-29T04:46:56.403Z,100154.30
2023-04-29T04:49:46.291Z,100150.33
2023-04-29T04:52:13.297Z,100152.77
2023-04-29T04:54:45.860Z,100154.40
2023-04-29T04:57:16.795Z,100153.74
2023-04-29T04:59:44.527Z,100148.29
2023-04-29T05:02:11.598Z,100147.14
2023-04-29T05:04:38.822Z,100145.94
2023-04-29T05:07:06.208Z,100138.08
2023-04-29T05:09:44.305Z,100138.96
2023-04-29T05:12:11.334Z,100136.99
2023-04-29T05:14:38.187Z,100140.86
2023-04-29T05:17:05.040Z,100136.91
2023-04-29T05:19:32.499Z,100138.47
2023-04-29T05:22:00.138Z,100140.14
2023-04-29T05:24:27.050Z,100138.36
2023-04-29T05:26:53.834Z,100140.12
2023-04-29T05:29:20.655Z,100140.92
2023-04-29T05:31:51.832Z,100141.74
2023-04-29T05:34:19.189Z,100143.54
2023-04-29T05:36:46.253Z,100143.92
2023-04-29T05:39:14.205Z,100147.20
2023-04-29T05:41:41.916Z,100145.12
2023-04-29T05:44:19.692Z,100142.73
2023-04-29T05:46:48.130Z,100141.84
2023-04-29T05:49:15.673Z,100138.48
2023-04-29T05:51:42.476Z,100142.39
2023-04-29T05:54:09.529Z,100139.21
2023-04-29T05:56:37.064Z,100140.05
2023-04-29T05:59:03.911Z,100146.08
2023-04-29T06:01:30.988Z,100141.89
2023-04-29T06:03:58.545Z,100145.42
2023-04-29T06:06:44.409Z,100148.34
2023-04-29T06:09:27.196Z,100146.78
2023-04-29T06:11:57.385Z,100141.69
2023-04-29T06:14:24.311Z,100148.79
2023-04-29T06:16:53.302Z,100145.93
2023-04-29T06:19:20.239Z,100142.70
2023-04-29T06:21:48.076Z,100140.88
2023-04-29T06:24:15.701Z,100144.33
2023-04-29T06:26:43.377Z,100144.15
2023-04-29T06:29:10.121Z,100144.70
2023-04-29T06:31:37.980Z,100144.73
2023-04-29T06:34:05.011Z,100141.14
2023-04-29T06:36:33.727Z,100136.27
2023-04-29T06:39:19.361Z,100143.27
2023-04-29T06:42:05.086Z,100144.90
2023-04-29T06:45:04.499Z,100143.52
2023-04-29T06:47:40.864Z,100139.96
2023-04-29T06:50:12.195Z,100135.27
2023-04-29T06:52:39.467Z,100139.30
2023-04-29T06:55:06.985Z,100134.46
2023-04-29T06:57:33.920Z,100111.50
2023-04-29T07:00:00.770Z,100131.20
2023-04-29T07:02:27.805Z,100135.77
2023-04-29T07:04:54.929Z,100124.65
2023-04-29T07:07:21.834Z,100126.17
2023-04-29T07:09:51.827Z,100129.46
2023-04-29T07:12:20.644Z,100144.78
2023-04-29T07:14:47.538Z,100151.69
2023-04-29T07:17:14.446Z,100153.28
2023-04-29T07:19:42.194Z,100137.86
2023-04-29T07:22:09.140Z,100149.90
2023-04-29T07:24:36.499Z,100154.38
2023-04-29T07:27:04.166Z,100160.48
2023-04-29T07:29:31.165Z,100152.96
2023-04-29T07:31:57.984Z,100151.46
2023-04-29T07:34:25.061Z,100148.49
2023-04-29T07:36:51.952Z,100139.02
2023-04-29T07:39:18.687Z,100149.98
2023-04-29T07:41:48.715Z,100153.40
2023-04-29T07:44:15.735Z,100150.56
2023-04-29T07:46:42.596Z,100143.00
2023-04-29T07:49:09.958Z,100149.52
2023-04-29T07:51:36.901Z,100153.17
2023-04-29T07:54:04.252Z,100145.73
2023-04-29T07:56:31.493Z,100151.84
2023-04-29T07:59:00.018Z,100148.09
2023-04-29T08:01:27.968Z,100146.02
2023-04-29T08:03:54.945Z,100149.29
2023-04-29T08:06:23.713Z,100141.71
2023-04-29T08:08:50.606Z,100138.17
2023-04-29T08:11:20.364Z,100141.67
2023-04-29T08:13:47.282Z,100157.05
2023-04-29T08:16:14.072Z,100150.33
2023-04-29T08:18:42.059Z,100151.77
2023-04-29T08:21:10.838Z,100147.34
2023-04-29T08:23:38.796Z,100142.94
2023-04-29T08:26:05.613Z,100142.02
2023-04-29T08:28:32.632Z,100141.90
2023-04-29T08:30:59.550Z,100138.09
2023-04-29T08:33:26.265Z,100141.63
2023-04-29T08:36:03.144Z,100144.15
2023-04-29T08:38:30.497Z,100138.86
2023-04-29T08:40:57.207Z,100137.08
2023-04-29T08:43:23.876Z,100135.77
2023-04-29T08:45:50.756Z,100129.40
2023-04-29T08:48:17.977Z,100127.18
2023-04-29T08:50:45.050Z,100130.86
2023-04-29T08:53:13.374Z,100129.77
2023-04-29T08:55:46.924Z,100130.52
2023-04-29T08:58:14.832Z,100133.24
2023-04-29T09:00:42.555Z,100129.15
2023-04-29T09:03:22.192Z,100127.73
2023-04-29T09:05:50.059Z,100133.48
2023-04-29T09:08:16.855Z,100119.42
2023-04-29T09:10:43.615Z,100125.98
2023-04-29T09:13:25.337Z,100131.18
2023-04-29T09:15:52.081Z,100128.15
2023-04-29T09:18:41.208Z,100121.46
2023-04-29T09:21:14.413Z,100120.98
2023-04-29T09:23:41.257Z,100125.99
2023-04-29T09:26:09.441Z,100128.23
2023-04-29T09:28:39.213Z,100123.85
2023-04-29T09:31:07.761Z,100123.43
2023-04-29T09:33:54.307Z,100125.66
2023-04-29T09:36:39.981Z,100118.67
2023-04-29T09:39:13.072Z,100119.54
2023-04-29T09:41:40.952Z,100122.81
2023-04-29T09:44:08.428Z,100123.48
2023-04-29T09:46:36.268Z,100094.84
2023-04-29T09:49:06.416Z,100104.77
2023-04-29T09:51:33.054Z,100104.25
2023-04-29T09:54:01.200Z,100115.92
2023-04-29T09:56:30.208Z,100117.09
2023-04-29T09:59:07.113Z,100117.41
2023-04-29T10:01:34.270Z,100109.13
2023-04-29T10:06:11.642Z,100098.67
2023-04-29T10:08:39.279Z,100096.55
2023-04-29T10:11:07.183Z,100094.83
2023-04-29T10:13:35.500Z,100089.96
2023-04-29T10:16:33.258Z,100101.91
2023-04-29T10:19:01.560Z,100086.23
2023-04-29T10:21:32.334Z,100091.02
2023-04-29T10:23:59.964Z,100087.39
2023-04-29T10:26:28.758Z,100085.28
2023-04-29T10:28:56.771Z,100079.20
2023-04-29T10:31:26.567Z,100089.23
2023-04-29T10:33:56.359Z,100085.27
2023-04-29T10:36:24.030Z,100072.83
2023-04-29T10:38:53.459Z,100074.52
2023-04-29T10:41:25.568Z,100079.11
2023-04-29T10:43:53.396Z,100070.34
2023-04-29T10:46:24.329Z,100073.80
2023-04-29T10:48:55.492Z,100071.30
2023-04-29T10:51:33.397Z,100072.92
2023-04-29T10:54:10.893Z,100063.79
2023-04-29T10:56:49.632Z,100069.71
2023-04-29T10:59:36.884Z,100069.73
2023-04-29T11:02:03.780Z,100060.23
2023-04-29T11:04:30.803Z,100067.23
2023-04-29T11:06:59.231Z,100061.45
2023-04-29T11:09:27.960Z,100062.20
2023-04-29T11:12:03.437Z,100059.50
2023-04-29T11:14:51.379Z,100062.59
2023-04-29T11:17:23.637Z,100049.66
2023-04-29T11:19:51.141Z,100045.23
2023-04-29T11:22:18.650Z,100044.33
2023-04-29T11:25:06.157Z,100039.65
2023-04-29T11:27:35.324Z,100033.00
2023-04-29T11:30:05.440Z,100035.73
2023-04-29T11:32:40.562Z,100027.89
2023-04-29T11:35:17.878Z,100033.50
2023-04-29T11:37:45.874Z,100047.22
2023-04-29T11:40:13.558Z,100046.73
2023-04-29T11:42:48.604Z,100033.63
2023-04-29T11:45:17.684Z,100035.88
2023-04-29T11:47:48.692Z,100034.55
2023-04-29T11:50:19.248Z,100030.16
2023-04-29T11:52:47.429Z,100028.02
2023-04-29T11:55:14.937Z,100016.48
2023-04-29T11:57:42.057Z,100023.90
2023-04-29T12:00:14.121Z,100017.48
2023-04-29T12:02:44.962Z,100021.05
2023-04-29T12:05:13.943Z,100019.10
2023-04-29T12:07:41.250Z,100012.59
2023-04-29T12:10:11.238Z,99999.13
2023-04-29T12:12:41.061Z,99996.01
2023-04-29T12:15:12.886Z,99990.06
2023-04-29T12:17:39.933Z,99982.23
2023-04-29T12:20:09.452Z,99983.66
2023-04-29T12:22:36.427Z,99982.08
2023-04-29T12:25:04.356Z,99988.07
2023-04-29T12:27:31.271Z,99994.15
2023-04-29T12:29:58.546Z,99994.88
2023-04-29T12:32:25.818Z,99990.39
2023-04-29T12:34:53.573Z,99981.89
2023-04-29T12:37:23.187Z,99971.59
2023-04-29T12:39:50.897Z,99984.09
2023-04-29T12:42:18.125Z,99993.77
2023-04-29T12:44:47.330Z,99980.25
2023-04-29T12:47:14.844Z,99952.52
2023-04-29T12:49:46.307Z,99966.98
2023-04-29T12:52:14.474Z,99964.81
2023-04-29T12:54:44.968Z,99964.19
2023-04-29T12:57:12.353Z,99958.23
2023-04-29T12:59:41.260Z,99952.71
2023-04-29T13:02:08.788Z,99952.73
2023-04-29T13:04:35.909Z,99951.89
2023-04-29T13:07:04.509Z,99945.29
2023-04-29T13:09:31.599Z,99940.11
2023-04-29T13:11:59.706Z,99940.48
2023-04-29T13:14:27.151Z,99950.48
2023-04-29T13:16:54.193Z,99954.55
2023-04-29T13:21:52.589Z,99933.58
2023-04-29T13:24:20.395Z,99941.02
2023-04-29T13:26:50.241Z,99941.02
2023-04-29T13:29:18.653Z,99949.09
2023-04-29T13:31:45.657Z,99947.84
2023-04-29T13:34:12.663Z,99938.93
2023-04-29T13:36:39.648Z,99946.09
2023-04-29T13:39:06.655Z,99954.49
2023-04-29T13:41:35.708Z,99951.95
2023-04-29T13:44:04.407Z,99951.77
2023-04-29T13:46:33.237Z,99949.47
2023-04-29T13:57:23.144Z,99960.59
2023-04-29T14:04:17.429Z,99952.95
2023-04-29T14:06:44.630Z,99950.09
2023-04-29T14:09:11.884Z,99952.39
2023-04-29T14:11:38.915Z,99950.18
2023-04-29T14:14:06.111Z,99960.60
2023-04-29T14:16:33.301Z,99950.60
2023-04-29T14:19:02.881Z,99953.30
2023-04-29T14:21:33.450Z,99947.92
2023-04-29T14:24:02.625Z,99938.48
2023-04-29T14:26:30.157Z,99931.91
2023-04-29T14:28:57.890Z,99930.89
2023-04-29T14:31:29.744Z,99932.44
2023-04-29T14:33:57.123Z,99938.55
2023-04-29T14:36:24.274Z,99938.68
2023-04-29T14:38:51.366Z,99925.97
2023-04-29T14:41:18.485Z,99926.49
2023-04-29T14:43:46.165Z,99935.52
2023-04-29T14:46:13.376Z,99934.23
2023-04-29T14:48:40.545Z,99932.35
2023-04-29T14:51:07.891Z,99933.57
2023-04-29T14:53:34.835Z,99932.30
2023-04-29T14:56:01.806Z,99934.30
2023-04-29T14:58:28.835Z,99931.70
2023-04-29T15:00:56.695Z,99932.34
2023-04-29T15:03:23.692Z,99930.64
2023-04-29T15:05:51.435Z,99922.69
2023-04-29T15:08:19.540Z,99925.52
2023-04-29T15:10:50.315Z,99929.92
2023-04-29T15:13:17.543Z,99926.97
2023-04-29T15:15:44.474Z,99920.17
2023-04-29T15:18:11.433Z,99916.13
2023-04-29T15:20:38.691Z,99913.36
2023-04-29T15:23:06.169Z,99919.69
2023-04-29T15:25:36.142Z,99922.61
2023-04-29T15:28:04.914Z,99920.92
2023-04-29T15:30:32.481Z,99923.56
2023-04-29T15:32:59.458Z,99920.56
2023-04-29T15:35:26.686Z,99913.83
2023-04-29T15:37:53.914Z,99911.67
2023-04-29T15:40:20.879Z,99912.98
2023-04-29T15:42:47.716Z,99917.70
2023-04-29T15:45:14.739Z,99928.86
2023-04-29T15:47:41.743Z,99933.35
2023-04-29T15:50:10.688Z,99930.02
2023-04-29T15:52:37.497Z,99925.64
2023-04-29T15:55:06.209Z,99928.40
2023-04-29T15:57:34.911Z,99928.56
2023-04-29T16:00:02.079Z,99931.80
2023-04-29T16:02:29.086Z,99934.77
2023-04-29T16:04:56.325Z,99932.23
2023-04-29T16:07:23.167Z,99926.27
2023-04-29T16:09:50.051Z,99927.60
2023-04-29T16:12:17.191Z,99925.78
2023-04-29T16:14:44.199Z,99927.40
2023-04-29T16:17:11.189Z,99923.89
2023-04-29T16:19:38.452Z,99924.55
2023-04-29T16:22:05.864Z,99923.89
2023-04-29T16:24:32.853Z,99924.30
2023-04-29T16:26:59.901Z,99922.02
2023-04-29T16:29:26.842Z,99928.11
2023-04-29T16:31:53.925Z,99928.19
2023-04-29T16:34:20.944Z,99926.77
2023-04-29T16:36:48.076Z,99930.98
2023-04-29T16:39:15.149Z,99934.39
2023-04-29T16:41:42.099Z,99939.95
2023-04-29T16:44:09.526Z,99936.34
2023-04-29T16:46:36.567Z,99935.01
2023-04-29T16:49:03.564Z,99936.73
2023-04-29T16:51:30.809Z,99935.72
2023-04-29T16:53:57.868Z,99935.77
2023-04-29T16:56:24.795Z,99938.45
2023-04-29T16:58:51.978Z,99938.77
2023-04-29T17:01:19.933Z,99934.94
2023-04-29T17:03:47.818Z,99939.85
2023-04-29T17:06:15.707Z,99941.21
2023-04-29T17:08:43.231Z,99940.81
2023-04-29T17:11:10.677Z,99938.30
2023-04-29T17:13:37.561Z,99942.85
2023-04-29T17:16:05.202Z,99947.88
2023-04-29T17:18:32.061Z,99943.85
2023-04-29T17:20:59.895Z,99943.73
2023-04-29T17:23:26.946Z,99939.88
2023-04-29T17:25:55.812Z,99942.54
2023-04-29T17:28:23.624Z,99946.98
2023-04-29T17:30:51.466Z,99949.41
2023-04-29T17:33:18.359Z,99953.14
2023-04-29T17:35:46.356Z,99956.54
2023-04-29T17:38:13.436Z,99957.34
2023-04-29T17:40:40.362Z,99957.26
2023-04-29T17:43:07.228Z,99960.10
2023-04-29T17:45:34.160Z,99961.33
2023-04-29T17:48:01.110Z,99963.17
2023-04-29T17:50:28.101Z,99966.13
2023-04-29T17:52:55.094Z,99962.91
2023-04-29T17:55:22.099Z,99960.97
2023-04-29T17:57:48.924Z,99965.29
2023-04-29T18:00:16.441Z,99963.84
2023-04-29T18:02:43.388Z,99965.05
2023-04-29T18:05:10.558Z,99966.80
2023-04-29T18:07:37.448Z,99964.95
2023-04-29T18:10:06.080Z,99964.27
2023-04-29T18:12:33.216Z,99962.68
2023-04-29T18:15:00.768Z,99964.36
2023-04-29T18:17:27.780Z,99966.66
2023-04-29T18:19:55.112Z,99963.91
2023-04-29T18:22:22.183Z,99963.60
2023-04-29T18:24:49.770Z,99962.20
2023-04-29T18:27:16.680Z,99961.27
2023-04-29T18:29:45.129Z,99963.08
2023-04-29T18:32:12.093Z,99962.86
2023-04-29T18:34:39.118Z,99967.38
2023-04-29T18:37:05.998Z,99963.98
2023-04-29T18:39:33.017Z,99963.77
2023-04-29T18:41:59.899Z,99963.53
2023-04-29T18:44:28.044Z,99962.99
2023-04-29T18:46:55.028Z,99961.42
2023-04-29T18:49:21.876Z,99964.04
2023-04-29T18:51:49.872Z,99959.87
2023-04-29T18:54:17.987Z,99955.86
2023-04-29T18:56:48.588Z,99953.25
2023-04-29T18:59:21.292Z,99951.64
2023-04-29T19:01:48.323Z,99952.20
2023-04-29T19:04:15.548Z,99950.44
2023-04-29T19:06:43.060Z,99948.27
2023-04-29T19:09:11.389Z,99947.10
2023-04-29T19:11:38.428Z,99945.67
2023-04-29T19:14:05.974Z,99946.84
2023-04-29T19:16:34.809Z,99948.89
2023-04-29T19:19:04.255Z,99946.59
2023-04-29T19:21:33.152Z,99942.58
2023-04-29T19:24:00.249Z,99935.39
2023-04-29T19:26:27.285Z,99937.05
2023-04-29T19:28:54.284Z,99937.41
2023-04-29T19:31:21.577Z,99934.67
2023-04-29T19:33:48.716Z,99937.59
2023-04-29T19:36:15.713Z,99932.27
2023-04-29T19:38:42.567Z,99933.00
2023-04-29T19:41:09.535Z,99930.41
2023-04-29T19:43:36.339Z,99931.71
2023-04-29T19:46:03.328Z,99927.59
2023-04-29T19:48:30.806Z,99930.77
2023-04-29T19:50:59.640Z,99924.31
2023-04-29T19:53:27.420Z,99924.96
2023-04-29T19:55:54.294Z,99918.66
2023-04-29T19:58:21.268Z,99919.52
2023-04-29T20:00:48.529Z,99919.86
2023-04-29T20:03:16.098Z,99921.20
2023-04-29T20:05:43.445Z,99925.88
2023-04-29T20:08:10.273Z,99917.91
2023-04-29T20:10:37.072Z,99918.60
2023-04-29T20:13:03.950Z,99918.35
2023-04-29T20:15:32.271Z,99919.27
2023-04-29T20:17:59.082Z,99913.85
2023-04-29T20:20:26.375Z,99909.73
2023-04-29T20:22:58.037Z,99910.20
2023-04-29T20:25:25.876Z,99911.61
2023-04-29T20:27:57.499Z,99915.00
2023-04-29T20:30:25.987Z,99910.10
2023-04-29T20:32:52.964Z,99911.27
2023-04-29T20:35:20.913Z,99912.44
2023-04-29T20:37:47.858Z,99913.42
2023-04-29T20:40:14.664Z,99912.38
2023-04-29T20:42:41.860Z,99911.29
2023-04-29T20:45:09.053Z,99905.60
2023-04-29T20:47:35.895Z,99904.66
2023-04-29T20:50:04.692Z,99902.13
2023-04-29T20:57:05.640Z,99896.61
2023-04-29T20:59:35.692Z,99893.77
2023-04-29T21:02:02.493Z,99891.64
2023-04-29T21:04:29.874Z,99894.11
2023-04-29T21:06:56.745Z,99890.06
2023-04-29T21:09:23.688Z,99889.90
2023-04-29T21:11:51.247Z,99885.86
2023-04-29T21:14:18.959Z,99888.89
2023-04-29T21:16:45.861Z,99887.73
2023-04-29T21:19:12.648Z,99889.39
2023-04-29T21:21:39.444Z,99889.66
2023-04-29T21:24:06.917Z,99890.67
2023-04-29T21:26:33.844Z,99894.63
2023-04-29T21:29:00.624Z,99892.67
2023-04-29T21:31:27.488Z,99900.45
2023-04-29T21:33:54.373Z,99902.59
2023-04-29T21:36:21.243Z,99903.58
2023-04-29T21:38:48.864Z,99905.98
2023-04-29T21:41:20.936Z,99897.39
2023-04-29T21:43:48.638Z,99897.12
2023-04-29T21:46:16.173Z,99903.41
2023-04-29T21:48:43.681Z,99899.77
2023-04-29T21:51:10.557Z,99898.80
2023-04-29T21:53:38.230Z,99896.96
2023-04-29T21:56:06.210Z,99895.50
2023-04-29T21:58:33.487Z,99896.70
2023-04-29T22:01:05.501Z,99898.45
2023-04-29T22:03:32.415Z,99901.08
2023-04-29T22:05:59.327Z,99897.35
2023-04-29T22:08:26.262Z,99896.65
2023-04-29T22:10:53.151Z,99893.67
2023-04-29T22:13:20.081Z,99891.44
2023-04-29T22:15:46.968Z,99897.85
2023-04-29T22:18:13.948Z,99896.43
2023-04-29T22:20:40.830Z,99896.80
2023-04-29T22:23:58.152Z,99904.88
2023-04-29T22:26:25.570Z,99894.98
2023-04-29T22:28:52.977Z,99889.87
2023-04-29T22:31:19.923Z,99892.23
2023-04-29T22:33:47.010Z,99897.09
2023-04-29T22:36:13.913Z,99896.59
2023-04-29T22:38:40.742Z,99898.13
2023-04-29T22:41:09.767Z,99898.00
2023-04-29T22:43:37.217Z,99902.62
2023-04-29T22:46:04.266Z,99900.02
2023-04-29T22:48:31.315Z,99900.41
2023-04-29T22:51:03.086Z,99893.14
2023-04-29T22:53:30.051Z,99894.72
2023-04-29T22:55:58.237Z,99900.55
2023-04-29T22:58:25.785Z,99898.24
2023-04-29T23:00:57.525Z,99899.27
2023-04-29T23:03:24.986Z,99896.04
2023-04-29T23:05:54.775Z,99893.35
2023-04-29T23:08:21.687Z,99895.64
2023-04-29T23:10:49.692Z,99896.85
2023-04-29T23:13:17.193Z,99898.21
2023-04-29T23:15:44.650Z,99899.05
2023-04-29T23:18:11.804Z,99901.38
2023-04-29T23:20:38.751Z,99901.94
2023-04-29T23:23:06.278Z,99905.56
2023-04-29T23:25:33.134Z,99905.29
2023-04-29T23:28:00.079Z,99904.67
2023-04-29T23:30:27.055Z,99901.23
2023-04-29T23:32:54.109Z,99902.20
2023-04-29T23:35:21.831Z,99900.14
2023-04-29T23:37:48.797Z,99900.73
2023-04-29T23:40:16.339Z,99902.73
2023-04-29T23:42:43.395Z,99900.85
2023-04-29T23:45:10.748Z,99900.19
2023-04-29T23:47:37.946Z,99894.91
2023-04-29T23:50:05.990Z,99895.82
2023-04-29T23:52:32.915Z,99896.67
2023-04-29T23:55:00.211Z,99898.63
2023-04-29T23:57:27.027Z,99899.33
2023-04-29T23:59:54.276Z,99896.14
